Flight Track Log - Related Links

Times and Time Zones

All times are in EDT time to prevent confusion due to time zone crossing. See the ELJ309 flight status page for this flight to view local times or setup timezone preferences in your user account.

Time Position Orientation Groundspeed Altitude Reporting Facility
EDT Latitude Longitude Course Direction KTS MPH feet Rate Location/Type
Sat 08:41:45 AM 27.0667 -82.4333 180° South 216 249 300  Level Tampa TRACON
Sat 08:42:03 AM 27.0500 -82.4333 180° South 174 200 900 2,000 Climbing Tampa TRACON
Sat 08:44:00 AM 26.9745 -82.3578 138° Southeast  Level FlightAware Approximate
Sat 08:51:00 AM 26.7442 -82.0609 131° Southeast  Level FlightAware Approximate
Sat 08:52:00 AM 26.7105 -82.0172 131° Southeast  Level FlightAware Approximate
Sat 08:53:00 AM 26.6768 -81.9735 131° Southeast  Level FlightAware Approximate
Sat 08:54:00 AM 26.6431 -81.9299 131° Southeast  Level FlightAware Approximate
Sat 08:55:00 AM 26.6094 -81.8863 131° Southeast  Level FlightAware Approximate
Sat 08:56:00 AM 26.5756 -81.8427 131° Southeast  Level FlightAware Approximate
Sat 08:57:00 AM 26.5419 -81.7991 131° Southeast  Level FlightAware Approximate
Sat 08:58:00 AM 26.5036 -81.7667 180° South  Level FlightAware Approximate
Sat 08:59:00 AM 26.4520 -81.7667 180° South  Level FlightAware Approximate
Sat 09:00:00 AM 26.4005 -81.7667 180° South  Level FlightAware Approximate
Sat 09:01:00 AM 26.3489 -81.7667 180° South  Level FlightAware Approximate
Sat 09:02:00 AM 26.2974 -81.7667 180° South  Level FlightAware Approximate
Sat 09:03:00 AM 26.2459 -81.7667 180° South  Level FlightAware Approximate
Sat 09:04:00 AM 26.1943 -81.7667 180° South  Level FlightAware Approximate
Sat 09:05:00 AM 26.1500 -81.7667 180° South  Level FlightAware Approximate
Sat 09:06:00 AM 26.1524 -81.7756 180° South  Level Estimated
Sat 09:07:00 AM 26.1524 -81.7756 180° South  Level Estimated
Sat 09:08:00 AM 26.1524 -81.7756 180° South  Level Estimated
Sat 09:09:00 AM 26.1524 -81.7756 180° South  Level Estimated
Sat 09:10:00 AM 26.1524 -81.7756 180° South  Level Estimated

Login

Don't have an account? Register now (free) for customized features, flight alerts, and more!